Time;durP1;ratioP1;P1;durP2;ratioP2;P2;SDS_P1;SDS_P2;PMS_P1;PMS_P2;Temp;Humidity;BMP_temperature;BMP_pressure;BME280_temperature;BME280_humidity;BME280_pressure;Samples;Min_cycle;Max_cycle;Signal;HPM_P1;HPM_P2
2021/10/28 00:14:42;;;;;;;8.20;5.82;;;12.80;99.90;;;;;;4995572;28;20176;-81
2021/10/28 00:17:16;;;;;;;11.43;6.03;;;12.60;99.90;;;;;;4995187;28;20169;-80
2021/10/28 00:19:43;;;;;;;15.43;6.45;;;12.50;99.90;;;;;;4995170;28;20198;-80
2021/10/28 00:22:11;;;;;;;7.30;6.25;;;12.50;99.90;;;;;;4995407;28;20209;-80
2021/10/28 00:24:37;;;;;;;8.05;5.43;;;12.50;99.90;;;;;;4994252;28;20540;-80
2021/10/28 00:27:03;;;;;;;11.27;5.90;;;12.50;99.90;;;;;;4995400;28;20165;-80
2021/10/28 00:29:29;;;;;;;7.60;5.05;;;12.70;99.90;;;;;;4995023;28;20248;-80
2021/10/28 00:31:56;;;;;;;12.50;5.25;;;12.60;99.90;;;;;;4995194;28;20180;-80
2021/10/28 00:34:22;;;;;;;7.25;5.28;;;12.60;99.90;;;;;;4995081;28;20561;-80
2021/10/28 00:36:49;;;;;;;5.22;4.68;;;12.40;99.90;;;;;;4995263;28;20180;-81
2021/10/28 00:39:15;;;;;;;8.43;4.32;;;12.40;99.90;;;;;;4993558;28;20193;-80
2021/10/28 00:41:41;;;;;;;7.28;4.70;;;12.50;99.90;;;;;;4995005;28;20173;-80
2021/10/28 00:44:10;;;;;;;9.48;4.40;;;12.40;99.90;;;;;;4995187;28;20174;-81
2021/10/28 00:46:39;;;;;;;6.00;4.55;;;12.50;99.90;;;;;;4994711;28;20204;-80
2021/10/28 00:49:08;;;;;;;8.75;4.80;;;12.40;99.90;;;;;;4994685;28;20197;-80
2021/10/28 00:51:34;;;;;;;13.05;5.05;;;12.40;99.90;;;;;;4994954;28;20169;-80
2021/10/28 00:54:00;;;;;;;12.00;4.72;;;12.50;99.90;;;;;;4994789;28;20185;-80
2021/10/28 00:56:29;;;;;;;15.00;5.88;;;12.60;99.90;;;;;;4994836;28;20188;-81
2021/10/28 00:58:54;;;;;;;7.47;4.25;;;12.60;99.90;;;;;;4994624;28;20209;-80
2021/10/28 01:01:20;;;;;;;7.68;4.53;;;12.60;99.90;;;;;;4994753;28;20664;-80
2021/10/28 01:03:46;;;;;;;10.15;4.30;;;12.70;99.90;;;;;;4994186;28;20213;-80
2021/10/28 01:06:13;;;;;;;5.75;4.20;;;12.70;99.90;;;;;;4994508;28;20161;-80
2021/10/28 01:08:43;;;;;;;9.75;4.10;;;12.70;99.90;;;;;;4994810;28;20192;-80
2021/10/28 01:11:10;;;;;;;5.22;4.07;;;12.50;99.90;;;;;;4994295;28;20165;-81
2021/10/28 01:13:37;;;;;;;8.68;4.38;;;12.60;99.90;;;;;;4994181;28;20200;-80
2021/10/28 01:16:04;;;;;;;8.73;4.20;;;12.60;99.90;;;;;;4993993;28;20177;-80
2021/10/28 01:18:30;;;;;;;6.97;3.97;;;12.60;99.90;;;;;;4994405;28;20185;-80
2021/10/28 01:20:56;;;;;;;7.32;3.95;;;12.70;99.90;;;;;;4994408;28;20161;-80
2021/10/28 01:23:24;;;;;;;7.60;3.30;;;12.50;99.90;;;;;;4994291;28;20268;-80
2021/10/28 01:25:58;;;;;;;6.30;3.67;;;12.50;99.90;;;;;;4994336;28;20626;-80
2021/10/28 01:28:26;;;;;;;7.72;3.88;;;12.40;99.90;;;;;;4994339;28;20193;-80
2021/10/28 01:30:58;;;;;;;7.78;3.38;;;12.40;99.90;;;;;;4994391;28;20517;-80
2021/10/28 01:33:25;;;;;;;5.10;3.72;;;12.40;99.90;;;;;;4993521;28;20259;-82
2021/10/28 01:35:51;;;;;;;9.40;3.17;;;12.50;99.90;;;;;;4992536;28;20173;-80
2021/10/28 01:38:18;;;;;;;3.97;3.53;;;12.60;99.90;;;;;;4992770;28;20281;-80
2021/10/28 01:41:02;;;;;;;6.75;3.58;;;12.60;99.90;;;;;;4993949;28;20165;-80
2021/10/28 01:43:30;;;;;;;6.43;3.25;;;12.60;99.90;;;;;;4993827;28;20219;-81
2021/10/28 01:45:56;;;;;;;4.32;3.55;;;12.60;99.90;;;;;;4993614;28;20522;-80
2021/10/28 01:48:22;;;;;;;3.58;3.10;;;12.60;99.90;;;;;;4992465;28;20193;-80
2021/10/28 01:50:49;;;;;;;6.03;3.50;;;12.50;99.90;;;;;;4993893;28;20173;-80
2021/10/28 01:53:15;;;;;;;8.45;3.80;;;12.40;99.90;;;;;;4993613;28;20184;-80
2021/10/28 01:55:41;;;;;;;5.50;3.45;;;12.60;99.90;;;;;;4993646;28;20216;-80
2021/10/28 01:58:08;;;;;;;7.68;3.50;;;12.60;99.90;;;;;;4993348;28;20509;-80
2021/10/28 02:00:35;;;;;;;6.20;3.20;;;12.60;99.90;;;;;;4993608;28;20169;-80
2021/10/28 02:03:01;;;;;;;4.15;3.45;;;12.40;99.90;;;;;;4993540;28;20208;-81
2021/10/28 02:05:26;;;;;;;4.82;3.15;;;12.50;99.90;;;;;;4992285;28;20587;-80
2021/10/28 02:07:52;;;;;;;2.92;2.65;;;12.50;99.90;;;;;;4993510;28;20169;-81
2021/10/28 02:10:20;;;;;;;5.93;3.15;;;12.50;99.90;;;;;;4993588;28;20205;-80
2021/10/28 02:12:47;;;;;;;4.38;3.97;;;12.50;99.90;;;;;;4992283;28;20172;-80
2021/10/28 02:15:15;;;;;;;6.88;3.40;;;12.50;99.90;;;;;;4993282;28;20169;-80
2021/10/28 02:17:42;;;;;;;6.43;3.75;;;12.50;99.90;;;;;;4993695;28;20179;-80
2021/10/28 02:20:10;;;;;;;5.22;3.58;;;12.50;99.90;;;;;;4993073;28;20200;-80
2021/10/28 02:22:37;;;;;;;10.10;3.60;;;12.30;99.90;;;;;;4993004;28;20196;-80
2021/10/28 02:25:04;;;;;;;5.35;3.83;;;12.30;99.90;;;;;;4993226;28;20169;-80
2021/10/28 02:27:29;;;;;;;6.75;3.63;;;12.10;99.90;;;;;;4992616;28;20172;-82
2021/10/28 02:29:55;;;;;;;5.93;3.60;;;12.20;99.90;;;;;;4992809;28;20197;-80
2021/10/28 02:32:21;;;;;;;12.82;3.75;;;12.30;99.90;;;;;;4993073;28;20165;-80
2021/10/28 02:34:47;;;;;;;7.72;3.67;;;12.30;99.90;;;;;;4992835;28;20267;-80
2021/10/28 02:37:13;;;;;;;11.43;3.88;;;12.20;99.90;;;;;;4991905;28;20263;-80
2021/10/28 02:39:38;;;;;;;8.15;3.88;;;12.20;99.90;;;;;;4993229;28;20654;-80
2021/10/28 02:42:05;;;;;;;5.43;4.30;;;12.10;99.90;;;;;;4992665;28;20197;-80
2021/10/28 02:44:31;;;;;;;6.43;4.03;;;12.10;99.90;;;;;;4992515;28;20703;-79
2021/10/28 02:46:57;;;;;;;7.43;3.58;;;12.20;99.90;;;;;;4993149;28;20161;-80
2021/10/28 02:49:25;;;;;;;5.30;3.83;;;12.30;99.90;;;;;;4993013;28;20578;-80
2021/10/28 02:51:50;;;;;;;8.02;4.18;;;12.20;99.90;;;;;;4991847;28;20169;-80
2021/10/28 02:54:19;;;;;;;11.55;4.30;;;12.20;99.90;;;;;;4992880;28;20311;-80
2021/10/28 02:56:45;;;;;;;8.73;5.18;;;12.50;99.90;;;;;;4992903;28;20330;-80
2021/10/28 02:59:11;;;;;;;9.85;4.70;;;12.50;99.90;;;;;;4992759;28;20340;-80
2021/10/28 03:01:49;;;;;;;9.50;4.95;;;12.40;99.90;;;;;;4993142;28;20170;-80
2021/10/28 03:04:16;;;;;;;5.80;4.05;;;12.30;99.90;;;;;;4991352;28;20550;-80
2021/10/28 03:06:42;;;;;;;4.68;3.67;;;12.20;99.90;;;;;;4991272;28;20622;-81
2021/10/28 03:09:11;;;;;;;9.15;3.95;;;12.30;99.90;;;;;;4991721;28;20228;-80
2021/10/28 03:11:40;;;;;;;10.55;4.45;;;12.40;99.90;;;;;;4992503;28;20212;-80
2021/10/28 03:14:05;;;;;;;7.57;4.07;;;12.40;99.90;;;;;;4992883;28;20233;-80
2021/10/28 03:27:18;;;;;;;4.30;3.78;;;12.20;99.90;;;;;;4992998;28;20224;-80
2021/10/28 03:29:44;;;;;;;8.35;5.20;;;12.20;99.90;;;;;;4992223;28;20602;-79
2021/10/28 03:32:09;;;;;;;8.35;4.45;;;12.20;99.90;;;;;;4992491;28;20176;-80
2021/10/28 03:34:36;;;;;;;12.88;4.30;;;12.20;99.90;;;;;;4992187;28;20178;-80
2021/10/28 03:48:30;;;;;;;11.13;4.65;;;12.00;99.90;;;;;;4996371;28;20232;-80
2021/10/28 04:06:30;;;;;;;8.75;3.72;;;12.00;99.90;;;;;;4995642;28;20199;-80
2021/10/28 04:16:25;;;;;;;5.90;4.75;;;12.10;99.90;;;;;;4995514;28;20653;-80
2021/10/28 04:17:22;;;;;;;10.23;4.38;;;12.20;99.90;;;;;;4995539;28;20686;-81
2021/10/28 04:21:00;;;;;;;8.43;5.03;;;12.10;99.90;;;;;;4995046;28;20181;-80
2021/10/28 04:30:54;;;;;;;7.00;4.97;;;12.10;99.90;;;;;;4995325;28;20598;-80
2021/10/28 04:33:20;;;;;;;7.03;4.85;;;12.00;99.90;;;;;;4994680;28;20252;-81
2021/10/28 04:36:04;;;;;;;6.65;4.70;;;11.90;99.90;;;;;;4994747;28;20656;-82
2021/10/28 04:38:39;;;;;;;5.30;4.82;;;11.90;99.90;;;;;;4994407;28;20243;-80
2021/10/28 04:41:05;;;;;;;10.05;5.32;;;12.10;99.90;;;;;;4994842;28;20175;-80
2021/10/28 04:43:30;;;;;;;12.60;4.45;;;12.10;99.90;;;;;;4994581;28;20205;-80
2021/10/28 04:45:56;;;;;;;6.65;5.32;;;12.00;99.90;;;;;;4995007;28;20172;-80
2021/10/28 04:48:22;;;;;;;5.30;4.68;;;11.90;99.90;;;;;;4994458;28;20185;-81
2021/10/28 04:50:48;;;;;;;6.85;5.05;;;11.70;99.90;;;;;;4994307;28;20545;-80
2021/10/28 04:53:14;;;;;;;11.73;5.00;;;11.60;99.90;;;;;;4994571;28;20637;-79
2021/10/28 04:55:39;;;;;;;8.82;4.80;;;11.70;99.90;;;;;;4994460;28;20173;-79
2021/10/28 04:58:05;;;;;;;9.90;5.45;;;11.80;99.90;;;;;;4994693;28;20625;-78
2021/10/28 05:00:33;;;;;;;15.85;5.70;;;11.90;99.90;;;;;;4994266;28;20191;-81
2021/10/28 05:02:59;;;;;;;13.38;6.00;;;12.00;99.90;;;;;;4994643;28;20209;-81
2021/10/28 05:05:25;;;;;;;11.38;4.57;;;12.00;99.90;;;;;;4994440;28;20169;-80
2021/10/28 05:07:50;;;;;;;20.85;5.95;;;12.00;99.90;;;;;;4994625;28;20228;-81
2021/10/28 05:10:16;;;;;;;12.45;4.57;;;12.10;99.90;;;;;;4993129;28;20169;-80
2021/10/28 05:12:44;;;;;;;10.48;5.07;;;12.20;99.90;;;;;;4993173;28;20231;-81
2021/10/28 05:15:13;;;;;;;9.98;5.47;;;12.20;99.90;;;;;;4992244;28;20243;-79
2021/10/28 05:17:39;;;;;;;27.85;5.97;;;12.20;99.90;;;;;;4993777;28;20174;-79
2021/10/28 05:20:05;;;;;;;14.68;6.57;;;12.20;99.90;;;;;;4994740;28;20534;-84
2021/10/28 05:22:34;;;;;;;8.93;5.85;;;12.30;99.90;;;;;;4994246;28;20209;-88
2021/10/28 05:24:59;;;;;;;7.20;5.90;;;12.10;99.90;;;;;;4993894;28;20267;-81
2021/10/28 05:27:25;;;;;;;10.85;6.15;;;12.10;99.90;;;;;;4993879;28;20165;-80
2021/10/28 05:29:51;;;;;;;6.50;5.00;;;12.10;99.90;;;;;;4993949;28;20562;-80
2021/10/28 05:32:16;;;;;;;10.75;5.82;;;12.10;99.90;;;;;;4993972;28;20174;-80
2021/10/28 05:34:44;;;;;;;11.23;6.15;;;12.00;99.90;;;;;;4993639;28;20176;-80
2021/10/28 05:37:09;;;;;;;16.92;6.85;;;12.10;99.90;;;;;;4993496;28;20184;-79
2021/10/28 05:39:35;;;;;;;9.85;6.10;;;12.00;99.90;;;;;;4993002;28;20656;-79
2021/10/28 05:42:01;;;;;;;17.50;5.82;;;12.00;99.90;;;;;;4993654;28;20217;-80
2021/10/28 05:44:26;;;;;;;8.70;5.80;;;12.00;99.90;;;;;;4993571;28;20174;-80
2021/10/28 05:46:52;;;;;;;14.23;7.00;;;12.00;99.90;;;;;;4993210;28;20181;-80
2021/10/28 05:49:18;;;;;;;9.45;5.97;;;12.10;99.90;;;;;;4992682;28;20215;-79
2021/10/28 05:51:46;;;;;;;7.78;5.65;;;12.00;99.90;;;;;;4992513;28;20173;-79
2021/10/28 05:54:12;;;;;;;7.50;5.00;;;11.90;99.90;;;;;;4992979;28;20185;-80
2021/10/28 05:56:38;;;;;;;15.10;6.60;;;11.90;99.90;;;;;;4993292;28;20169;-81
2021/10/28 05:59:04;;;;;;;8.45;5.43;;;12.00;99.90;;;;;;4993207;28;20181;-79
2021/10/28 06:01:29;;;;;;;10.15;5.60;;;11.80;99.90;;;;;;4993714;28;20720;-80
2021/10/28 06:03:55;;;;;;;10.02;6.60;;;11.80;99.90;;;;;;4993030;28;20208;-79
2021/10/28 06:06:22;;;;;;;12.45;6.63;;;11.80;99.90;;;;;;4992416;28;20207;-79
2021/10/28 06:08:47;;;;;;;8.20;6.15;;;11.80;99.90;;;;;;4992339;28;20185;-80
2021/10/28 06:11:15;;;;;;;9.35;5.75;;;11.90;99.90;;;;;;4991042;28;20213;-81
2021/10/28 06:13:44;;;;;;;11.40;6.28;;;12.00;99.90;;;;;;4992801;28;20183;-81
2021/10/28 06:16:10;;;;;;;7.45;5.53;;;11.90;99.90;;;;;;4991395;28;20252;-80
2021/10/28 06:18:41;;;;;;;24.10;6.25;;;12.00;99.90;;;;;;4991291;28;20188;-80
2021/10/28 06:21:08;;;;;;;6.35;5.63;;;12.00;99.90;;;;;;4992422;28;20165;-81
2021/10/28 06:23:34;;;;;;;12.52;6.75;;;11.90;99.90;;;;;;4992383;28;20196;-83
2021/10/28 06:26:00;;;;;;;8.40;6.50;;;11.90;99.90;;;;;;4992564;28;20173;-80
2021/10/28 06:28:26;;;;;;;9.00;6.32;;;12.00;99.90;;;;;;4991534;28;20291;-79
2021/10/28 06:30:51;;;;;;;10.63;6.72;;;11.80;99.90;;;;;;4991363;28;20173;-80
2021/10/28 06:33:23;;;;;;;14.07;6.53;;;11.80;99.90;;;;;;4992475;28;20177;-80
2021/10/28 06:35:49;;;;;;;14.43;7.22;;;11.90;99.90;;;;;;4993720;28;20217;-80
2021/10/28 06:38:15;;;;;;;9.95;6.25;;;12.00;99.90;;;;;;4992607;28;20201;-79
2021/10/28 06:40:41;;;;;;;10.32;6.15;;;11.90;99.90;;;;;;4991423;28;20173;-79
2021/10/28 06:43:08;;;;;;;15.68;7.07;;;11.80;99.90;;;;;;4990998;28;20217;-82
2021/10/28 06:45:34;;;;;;;16.55;7.38;;;11.80;99.90;;;;;;4991333;28;20200;-80
2021/10/28 06:47:59;;;;;;;8.38;6.53;;;11.80;99.90;;;;;;4992736;28;20169;-80
2021/10/28 06:51:07;;;;;;;15.52;6.25;;;11.80;99.90;;;;;;4990598;28;20215;-85
2021/10/28 06:53:22;;;;;;;11.70;6.43;;;11.80;99.90;;;;;;4992009;28;20185;-79
2021/10/28 07:03:27;;;;;;;19.65;7.82;;;11.50;99.90;;;;;;4991786;28;20578;-79
2021/10/28 07:05:55;;;;;;;17.80;7.22;;;11.50;99.90;;;;;;4991016;28;20177;-79
2021/10/28 07:08:21;;;;;;;27.90;7.50;;;11.60;99.90;;;;;;4988714;28;20197;-82
2021/10/28 07:10:49;;;;;;;14.23;6.63;;;11.80;99.90;;;;;;4971055;28;20244;-85
2021/10/28 07:13:19;;;;;;;12.88;7.70;;;11.80;99.90;;;;;;4982556;28;20573;-80
2021/10/28 07:15:51;;;;;;;20.05;7.35;;;11.90;99.90;;;;;;4992912;28;20169;-79
2021/10/28 07:28:21;;;;;;;12.20;7.55;;;11.90;99.90;;;;;;4997459;28;20209;-81
2021/10/28 07:31:09;;;;;;;15.45;7.45;;;11.80;99.90;;;;;;4997378;28;20161;-84
2021/10/28 08:13:32;;;;;;;29.10;9.43;;;12.50;99.90;;;;;;4993413;28;20664;-80
2021/10/28 08:14:23;;;;;;;22.98;8.57;;;12.50;99.90;;;;;;4994983;28;20180;-80
2021/10/28 08:22:36;;;;;;;35.38;9.13;;;12.70;99.90;;;;;;4994242;28;20245;-80
2021/10/28 08:30:10;;;;;;;16.23;7.75;;;12.80;99.90;;;;;;4994643;28;20303;-80
2021/10/28 08:32:36;;;;;;;24.33;8.77;;;12.70;99.90;;;;;;4994682;28;20178;-81
2021/10/28 08:35:02;;;;;;;16.42;8.15;;;12.80;99.90;;;;;;4993089;28;20181;-81
2021/10/28 08:37:41;;;;;;;22.40;8.50;;;12.90;99.90;;;;;;4995120;28;20279;-82
2021/10/28 08:40:09;;;;;;;18.00;8.93;;;12.90;99.90;;;;;;4993939;28;20196;-82
2021/10/28 08:42:37;;;;;;;12.55;7.65;;;13.00;99.90;;;;;;4993505;28;20772;-81
2021/10/28 08:45:03;;;;;;;22.60;8.18;;;12.80;99.90;;;;;;4993514;28;20169;-82
2021/10/28 08:47:30;;;;;;;13.18;8.48;;;12.80;99.90;;;;;;4993181;28;20637;-83
2021/10/28 08:50:05;;;;;;;19.25;7.80;;;12.80;99.90;;;;;;4994654;28;20228;-83
2021/10/28 09:26:26;;;;;;;13.63;6.90;;;13.90;99.90;;;;;;4994211;28;20236;-80
2021/10/28 09:29:20;;;;;;;13.15;7.72;;;13.80;99.90;;;;;;4993986;28;20248;-78
2021/10/28 09:31:56;;;;;;;15.43;7.72;;;13.80;99.90;;;;;;4994062;28;20501;-80
2021/10/28 09:35:20;;;;;;;12.35;7.38;;;13.80;99.90;;;;;;4992396;28;20231;-81
2021/10/28 09:51:14;;;;;;;11.85;6.85;;;14.20;99.90;;;;;;4993738;28;20320;-81
2021/10/28 09:59:32;;;;;;;17.38;6.20;;;14.50;99.90;;;;;;4993452;28;20560;-82
2021/10/28 10:02:09;;;;;;;13.38;6.95;;;14.60;99.90;;;;;;4992198;28;20162;-81
2021/10/28 10:04:37;;;;;;;30.55;7.18;;;14.60;99.90;;;;;;4993559;28;20165;-81
2021/10/28 10:07:04;;;;;;;22.48;7.10;;;14.50;99.90;;;;;;4992902;28;20168;-80
2021/10/28 10:09:39;;;;;;;14.07;6.57;;;14.60;99.90;;;;;;4993071;28;20240;-81
2021/10/28 10:12:06;;;;;;;16.38;7.22;;;14.60;99.90;;;;;;4992824;28;20188;-80
2021/10/28 10:14:37;;;;;;;14.40;6.20;;;14.60;99.90;;;;;;4992956;28;20224;-80
2021/10/28 10:17:07;;;;;;;14.63;6.47;;;14.60;99.90;;;;;;4993325;28;20663;-80
2021/10/28 10:19:39;;;;;;;26.55;6.22;;;14.60;99.90;;;;;;4993150;28;20273;-79
2021/10/28 10:22:19;;;;;;;14.10;5.95;;;14.70;99.90;;;;;;4992899;28;20637;-81
2021/10/28 10:24:55;;;;;;;11.88;5.88;;;14.80;99.90;;;;;;4993119;28;20208;-81
2021/10/28 11:03:05;;;;;;;21.85;6.78;;;14.80;99.90;;;;;;4994062;28;20321;-80
2021/10/28 11:23:22;;;;;;;13.60;4.97;;;15.50;99.90;;;;;;4992687;28;20217;-80
2021/10/28 12:46:09;;;;;;;9.32;2.78;;;16.30;99.90;;;;;;4995037;28;20180;-81
2021/10/28 12:51:45;;;;;;;4.57;2.38;;;16.40;99.90;;;;;;4994797;28;20187;-87
2021/10/28 13:02:12;;;;;;;4.80;2.28;;;16.40;99.90;;;;;;4995114;28;20192;-84
2021/10/28 13:55:34;;;;;;;4.72;1.65;;;16.90;99.90;;;;;;4993808;28;20265;-79
2021/10/28 13:58:28;;;;;;;3.13;1.60;;;16.90;99.90;;;;;;4992259;28;20188;-80
2021/10/28 14:20:48;;;;;;;2.60;1.95;;;17.00;99.90;;;;;;4992358;28;20193;-80
2021/10/28 14:26:06;;;;;;;5.47;1.92;;;17.00;99.90;;;;;;4993246;28;20243;-82
2021/10/28 15:28:12;;;;;;;8.85;2.35;;;16.90;99.90;;;;;;4992898;28;20200;-79
2021/10/28 15:36:12;;;;;;;5.65;2.30;;;16.70;99.90;;;;;;4996102;28;20216;-79
2021/10/28 15:38:49;;;;;;;4.00;2.20;;;16.70;99.90;;;;;;4995646;28;20664;-77
2021/10/28 15:41:54;;;;;;;4.93;2.20;;;16.80;99.90;;;;;;4995752;28;20268;-78
2021/10/28 16:23:53;;;;;;;7.38;3.05;;;16.10;99.90;;;;;;4995377;28;20347;-77
2021/10/28 16:26:19;;;;;;;22.92;3.08;;;16.20;99.90;;;;;;4996373;28;20196;-78
2021/10/28 16:28:45;;;;;;;9.05;4.00;;;16.00;99.90;;;;;;4996102;28;20657;-78
2021/10/28 16:31:14;;;;;;;8.15;3.53;;;16.00;99.90;;;;;;4995085;28;20168;-78
2021/10/28 16:33:41;;;;;;;8.75;2.75;;;15.90;99.90;;;;;;4995174;28;20262;-79
2021/10/28 16:36:07;;;;;;;5.63;2.67;;;16.00;99.90;;;;;;4994927;28;20751;-78
2021/10/28 16:38:32;;;;;;;4.43;2.50;;;16.00;99.90;;;;;;4993602;28;20228;-78
2021/10/28 16:40:58;;;;;;;3.33;3.03;;;16.00;99.90;;;;;;4994842;28;20169;-78
2021/10/28 16:43:24;;;;;;;5.63;2.95;;;16.00;99.90;;;;;;4994600;28;20197;-79
2021/10/28 16:45:50;;;;;;;10.40;3.13;;;16.00;99.90;;;;;;4993791;28;20252;-79
2021/10/28 16:48:16;;;;;;;8.60;2.90;;;16.00;99.90;;;;;;4994729;28;20672;-78
2021/10/28 16:50:42;;;;;;;9.77;3.53;;;16.00;99.90;;;;;;4994936;28;20668;-79
2021/10/28 16:53:08;;;;;;;10.57;3.65;;;15.90;99.90;;;;;;4994887;28;20188;-78
2021/10/28 16:55:35;;;;;;;6.35;3.47;;;15.80;99.90;;;;;;4994534;28;20610;-78
2021/10/28 16:58:00;;;;;;;8.70;3.28;;;15.70;99.90;;;;;;4994564;28;20175;-79
2021/10/28 17:00:27;;;;;;;5.65;3.45;;;15.80;99.90;;;;;;4994526;28;20252;-79
2021/10/28 17:02:53;;;;;;;10.13;5.40;;;15.90;99.90;;;;;;4994089;28;20613;-79
2021/10/28 17:05:19;;;;;;;17.33;6.43;;;15.90;99.90;;;;;;4994616;28;20180;-79
2021/10/28 17:07:45;;;;;;;11.27;5.38;;;15.80;99.90;;;;;;4978756;28;20237;-83
2021/10/28 17:10:11;;;;;;;8.70;4.57;;;15.70;99.90;;;;;;4974890;28;20523;-78
2021/10/28 17:12:37;;;;;;;6.22;4.40;;;15.70;99.90;;;;;;4974840;28;20206;-78
2021/10/28 17:15:04;;;;;;;10.25;3.60;;;15.50;99.90;;;;;;4974709;28;20173;-80
2021/10/28 17:17:30;;;;;;;24.42;5.13;;;15.40;99.90;;;;;;4974629;28;20173;-81
2021/10/28 17:20:02;;;;;;;5.57;4.53;;;15.40;99.90;;;;;;4974775;28;20190;-79
2021/10/28 17:22:28;;;;;;;37.22;5.82;;;15.40;99.90;;;;;;4974743;28;20193;-79
2021/10/28 17:24:53;;;;;;;7.80;4.07;;;15.40;99.90;;;;;;4974439;28;20208;-78
2021/10/28 17:27:20;;;;;;;15.20;4.60;;;15.60;99.90;;;;;;4974432;28;20260;-79
2021/10/28 17:29:45;;;;;;;13.75;5.10;;;15.50;99.90;;;;;;4974115;28;20182;-80
2021/10/28 17:32:11;;;;;;;7.95;4.45;;;15.40;99.90;;;;;;4974008;28;20166;-79
2021/10/28 17:34:37;;;;;;;12.20;5.10;;;15.20;99.90;;;;;;4974301;28;20170;-80
2021/10/28 17:37:05;;;;;;;15.77;4.80;;;15.20;99.90;;;;;;4974384;28;20170;-79
2021/10/28 17:39:31;;;;;;;7.00;4.50;;;15.20;99.90;;;;;;4974283;28;20224;-78
2021/10/28 17:41:58;;;;;;;7.25;5.35;;;15.20;99.90;;;;;;4974395;28;20228;-79
2021/10/28 17:44:34;;;;;;;7.15;4.63;;;15.10;99.90;;;;;;4974699;28;20300;-78
2021/10/28 17:47:00;;;;;;;9.65;4.65;;;14.90;99.90;;;;;;4974278;28;20201;-77
2021/10/28 17:49:26;;;;;;;9.25;5.00;;;14.70;99.90;;;;;;4974225;28;20242;-79
2021/10/28 17:51:51;;;;;;;17.27;6.25;;;14.70;99.90;;;;;;4972786;28;20166;-80
2021/10/28 17:54:17;;;;;;;18.15;5.95;;;14.70;99.90;;;;;;4974148;28;20217;-82
2021/10/28 17:56:42;;;;;;;10.95;6.03;;;14.90;99.90;;;;;;4973827;28;20177;-80
2021/10/28 17:59:08;;;;;;;19.35;5.65;;;14.90;99.90;;;;;;4974149;28;20213;-79
2021/10/28 18:01:37;;;;;;;11.93;5.88;;;14.90;99.90;;;;;;4974544;28;20170;-78
2021/10/28 18:04:03;;;;;;;15.38;5.50;;;14.90;99.90;;;;;;4973819;28;20296;-79
2021/10/28 18:06:31;;;;;;;15.10;5.80;;;14.90;99.90;;;;;;4974022;28;20162;-79
2021/10/28 18:08:57;;;;;;;10.68;5.43;;;14.90;99.90;;;;;;4974377;28;20272;-78
2021/10/28 18:11:24;;;;;;;19.80;5.68;;;14.80;99.90;;;;;;4975014;28;20169;-77
2021/10/28 18:13:53;;;;;;;4.68;4.25;;;14.80;99.90;;;;;;4973707;28;20170;-78
2021/10/28 18:16:20;;;;;;;9.10;5.63;;;14.80;99.90;;;;;;4973896;28;20174;-78
2021/10/28 18:18:46;;;;;;;5.45;4.55;;;14.80;99.90;;;;;;4973889;28;20201;-80
2021/10/28 18:21:11;;;;;;;6.38;4.72;;;14.70;99.90;;;;;;4974340;28;20174;-78
2021/10/28 18:23:44;;;;;;;6.15;5.55;;;14.60;99.90;;;;;;4973759;28;20284;-78
2021/10/28 18:26:10;;;;;;;6.40;4.75;;;14.60;99.90;;;;;;4973613;28;20165;-78
2021/10/28 18:28:35;;;;;;;7.40;4.75;;;14.60;99.90;;;;;;4973853;28;20201;-79
2021/10/28 18:31:02;;;;;;;14.13;4.80;;;14.50;99.90;;;;;;4974061;28;20530;-78
2021/10/28 18:33:27;;;;;;;6.00;4.30;;;14.50;99.90;;;;;;4973470;28;20538;-79
2021/10/28 18:35:53;;;;;;;7.25;4.82;;;14.40;99.90;;;;;;4974645;28;20162;-77
2021/10/28 18:38:21;;;;;;;6.15;5.35;;;14.50;99.90;;;;;;4974667;28;20212;-78
2021/10/28 18:40:46;;;;;;;5.82;5.10;;;14.50;99.90;;;;;;4973955;28;20158;-78
2021/10/28 18:43:16;;;;;;;15.48;5.32;;;14.50;99.90;;;;;;4973536;28;20367;-79
2021/10/28 18:45:42;;;;;;;8.00;5.82;;;14.50;99.90;;;;;;4973651;28;20184;-80
2021/10/28 18:48:08;;;;;;;11.05;5.47;;;14.50;99.90;;;;;;4973482;28;20626;-79
2021/10/28 18:50:34;;;;;;;11.80;5.70;;;14.60;99.90;;;;;;4972687;28;20217;-79
2021/10/28 18:53:00;;;;;;;14.07;5.18;;;14.40;99.90;;;;;;4972836;28;20169;-80
2021/10/28 18:55:26;;;;;;;10.00;4.28;;;14.30;99.90;;;;;;4973502;28;20166;-79
2021/10/28 18:57:51;;;;;;;6.13;4.35;;;14.30;99.90;;;;;;4973272;28;20173;-80
2021/10/28 19:00:17;;;;;;;6.72;4.70;;;14.20;99.90;;;;;;4973451;28;20276;-83
2021/10/28 19:02:43;;;;;;;17.23;5.57;;;14.10;99.90;;;;;;4973507;28;20236;-82
2021/10/28 19:05:09;;;;;;;11.98;5.50;;;14.10;99.90;;;;;;4986151;28;20196;-81
2021/10/28 19:07:35;;;;;;;4.72;4.20;;;14.10;99.90;;;;;;4992169;28;20173;-81
2021/10/28 19:10:00;;;;;;;8.07;5.25;;;14.00;99.90;;;;;;4995489;28;20291;-80
2021/10/28 19:12:26;;;;;;;6.57;4.28;;;14.00;99.90;;;;;;4994600;28;20649;-83
2021/10/28 19:14:54;;;;;;;5.57;5.07;;;14.00;99.90;;;;;;4996307;28;20193;-81
2021/10/28 19:17:20;;;;;;;8.38;4.63;;;14.00;99.90;;;;;;4993824;28;20223;-81
2021/10/28 19:19:45;;;;;;;5.57;4.95;;;14.10;99.90;;;;;;4994224;28;20197;-80
2021/10/28 19:22:11;;;;;;;5.25;4.55;;;14.20;99.90;;;;;;4996132;28;20168;-80
2021/10/28 19:24:37;;;;;;;9.15;5.00;;;14.20;99.90;;;;;;4993144;28;20220;-81
2021/10/28 19:27:03;;;;;;;8.93;5.13;;;14.00;99.90;;;;;;4992282;28;20177;-82
2021/10/28 19:29:31;;;;;;;8.10;4.22;;;13.90;99.90;;;;;;4992071;28;20196;-82
2021/10/28 19:32:16;;;;;;;8.48;5.25;;;13.80;99.90;;;;;;4994457;28;20173;-81
2021/10/28 19:34:42;;;;;;;11.48;5.07;;;13.80;99.90;;;;;;4995366;28;20193;-81
2021/10/28 19:47:46;;;;;;;8.15;4.28;;;13.90;99.90;;;;;;4976918;28;20173;-78
2021/10/28 19:50:12;;;;;;;10.63;4.53;;;13.90;99.90;;;;;;4978199;28;20258;-78
2021/10/28 19:52:43;;;;;;;9.98;4.18;;;13.70;99.90;;;;;;4994768;28;20176;-78
2021/10/28 19:55:10;;;;;;;8.00;4.63;;;13.70;99.90;;;;;;4995236;28;20185;-79
2021/10/28 19:57:37;;;;;;;9.98;4.47;;;13.60;99.90;;;;;;4994851;28;20165;-78
2021/10/28 20:05:22;;;;;;;11.65;4.93;;;13.70;99.90;;;;;;4995271;28;20255;-78
2021/10/28 20:13:35;;;;;;;6.90;4.50;;;13.70;99.90;;;;;;4994756;28;20613;-79
2021/10/28 20:21:23;;;;;;;6.32;3.85;;;13.80;99.90;;;;;;4994548;28;20203;-78
2021/10/28 20:23:50;;;;;;;4.63;3.95;;;13.80;99.90;;;;;;4994379;28;20208;-78
2021/10/28 20:26:17;;;;;;;6.18;4.28;;;13.70;99.90;;;;;;4994969;28;20212;-79
2021/10/28 20:28:47;;;;;;;4.38;3.60;;;13.60;99.90;;;;;;4993175;28;20193;-78
2021/10/28 20:31:14;;;;;;;7.38;4.40;;;13.60;99.90;;;;;;5011637;22;20145;-78
2021/10/28 20:34:10;;;;;;;4.90;4.25;;;13.60;99.90;;;;;;5013670;28;20211;-81
2021/10/28 20:39:21;;;;;;;5.10;4.00;;;13.80;99.90;;;;;;5015095;28;20204;-78
2021/10/28 20:41:46;;;;;;;6.68;4.57;;;13.80;99.90;;;;;;5015208;28;20527;-78
2021/10/28 20:44:13;;;;;;;4.03;3.63;;;13.80;99.90;;;;;;5014680;28;20291;-77
2021/10/28 20:46:38;;;;;;;4.85;3.92;;;13.80;99.90;;;;;;5014869;28;20675;-82
2021/10/28 20:49:04;;;;;;;8.63;4.18;;;13.70;99.90;;;;;;5014704;28;20188;-81
2021/10/28 20:51:30;;;;;;;7.30;4.13;;;13.70;99.90;;;;;;5014562;28;20164;-78
2021/10/28 20:53:57;;;;;;;5.05;3.67;;;13.80;99.90;;;;;;5014444;28;20489;-79
2021/10/28 20:56:26;;;;;;;4.63;4.15;;;13.80;99.90;;;;;;5014985;28;20164;-78
2021/10/28 20:58:52;;;;;;;4.90;3.72;;;13.80;99.90;;;;;;5014712;28;20271;-78
2021/10/28 21:01:18;;;;;;;6.03;3.40;;;13.80;99.90;;;;;;5014197;28;20684;-78
2021/10/28 21:03:44;;;;;;;7.88;3.60;;;13.80;99.90;;;;;;5012832;28;20212;-77
2021/10/28 21:06:11;;;;;;;4.22;3.50;;;13.80;99.90;;;;;;5014619;28;20703;-78
2021/10/28 21:08:37;;;;;;;4.55;3.17;;;13.80;99.90;;;;;;5014340;28;20533;-78
2021/10/28 21:11:02;;;;;;;4.28;2.90;;;13.70;99.90;;;;;;5014667;28;20189;-80
2021/10/28 21:13:28;;;;;;;7.72;3.72;;;13.80;99.90;;;;;;5014336;28;20168;-79
2021/10/28 21:15:54;;;;;;;4.97;3.65;;;13.80;99.90;;;;;;5014350;28;20165;-80
2021/10/28 21:18:20;;;;;;;5.25;3.10;;;13.80;99.90;;;;;;5014218;28;20196;-78
2021/10/28 21:20:46;;;;;;;3.95;3.33;;;13.70;99.90;;;;;;5014237;28;20161;-81
2021/10/28 21:23:12;;;;;;;5.10;4.22;;;13.90;99.90;;;;;;5014255;28;20206;-78
2021/10/28 21:25:37;;;;;;;4.05;3.20;;;13.90;99.90;;;;;;5014019;28;20160;-82
2021/10/28 21:28:03;;;;;;;4.75;3.10;;;13.80;99.90;;;;;;5013999;28;20169;-78
2021/10/28 21:30:29;;;;;;;4.38;3.03;;;13.80;99.90;;;;;;5013907;28;20256;-82
2021/10/28 21:32:56;;;;;;;9.10;3.22;;;13.80;99.90;;;;;;5013473;28;20263;-79
2021/10/28 21:35:22;;;;;;;3.20;2.63;;;13.80;99.90;;;;;;5013671;28;20172;-78
2021/10/28 21:37:48;;;;;;;3.13;2.80;;;13.90;99.90;;;;;;5014085;28;20173;-77
2021/10/28 21:40:16;;;;;;;7.50;4.18;;;13.90;99.90;;;;;;5014042;28;20184;-79
2021/10/28 21:42:42;;;;;;;3.25;2.95;;;13.80;99.90;;;;;;5014128;28;20560;-79
2021/10/28 21:45:13;;;;;;;2.92;2.67;;;13.80;99.90;;;;;;5013568;28;20168;-80